createdAt,value
2022-10-07T00:01:06.470Z,121.23
2022-10-07T00:03:34.781Z,121.50
2022-10-07T00:06:10.732Z,121.97
2022-10-07T00:08:41.370Z,120.93
2022-10-07T00:11:29.443Z,121.50
2022-10-07T00:14:01.446Z,121.77
2022-10-07T00:16:34.671Z,121.50
2022-10-07T00:19:05.840Z,121.47
2022-10-07T00:21:36.014Z,120.80
2022-10-07T00:24:04.520Z,121.87
2022-10-07T00:26:34.374Z,121.30
2022-10-07T00:29:02.849Z,121.33
2022-10-07T00:31:33.775Z,121.40
2022-10-07T00:34:03.519Z,120.87
2022-10-07T00:36:35.679Z,121.67
2022-10-07T00:39:10.147Z,121.00
2022-10-07T00:41:43.520Z,121.20
2022-10-07T00:44:33.663Z,121.10
2022-10-07T00:47:14.020Z,121.50
2022-10-07T00:49:57.196Z,121.77
2022-10-07T00:52:30.835Z,120.93
2022-10-07T00:55:01.703Z,120.37
2022-10-07T00:57:31.990Z,120.70
2022-10-07T01:00:01.358Z,121.20
2022-10-07T01:02:29.163Z,121.23
2022-10-07T01:04:59.364Z,120.87
2022-10-07T01:07:28.714Z,120.03
2022-10-07T01:09:59.418Z,121.13
2022-10-07T01:12:55.356Z,120.47
2022-10-07T01:15:37.596Z,121.10
2022-10-07T01:18:11.189Z,121.43
2022-10-07T01:20:50.832Z,120.30
2022-10-07T01:24:25.290Z,121.30
2022-10-07T01:27:04.258Z,120.67
2022-10-07T01:29:37.821Z,120.30
2022-10-07T01:32:21.754Z,119.97
2022-10-07T01:34:52.629Z,121.10
2022-10-07T01:37:22.729Z,120.67
2022-10-07T01:39:57.089Z,121.30
2022-10-07T01:42:27.038Z,121.30
2022-10-07T01:44:57.910Z,121.10
2022-10-07T01:47:28.782Z,121.37
2022-10-07T01:49:56.026Z,120.80
2022-10-07T01:53:18.370Z,120.90
2022-10-07T01:56:26.737Z,120.90
2022-10-07T01:59:33.219Z,121.33
2022-10-07T02:03:16.775Z,121.00
2022-10-07T02:06:05.010Z,119.60
2022-10-07T02:08:54.694Z,121.07
2022-10-07T02:11:29.591Z,120.87
2022-10-07T02:14:38.191Z,120.90
2022-10-07T02:17:16.483Z,118.90
2022-10-07T02:19:53.255Z,120.57
2022-10-07T02:22:23.991Z,121.60
2022-10-07T02:25:00.579Z,118.07
2022-10-07T02:27:36.271Z,120.07
2022-10-07T02:30:10.695Z,121.20
2022-10-07T02:32:43.460Z,121.20
2022-10-07T02:35:31.609Z,120.57
2022-10-07T02:38:05.079Z,120.07
2022-10-07T02:40:48.919Z,120.67
2022-10-07T02:43:39.056Z,120.67
2022-10-07T02:46:26.044Z,121.10
2022-10-07T02:49:06.453Z,121.10
2022-10-07T02:51:46.420Z,121.23
2022-10-07T02:54:22.135Z,121.17
2022-10-07T02:56:51.905Z,120.47
2022-10-07T02:59:21.964Z,120.07
2022-10-07T03:01:54.226Z,121.30
2022-10-07T03:04:23.050Z,120.30
2022-10-07T03:06:53.322Z,120.77
2022-10-07T03:09:20.968Z,120.77
2022-10-07T03:11:49.372Z,120.90
2022-10-07T03:14:16.532Z,120.00
2022-10-07T03:16:43.933Z,121.20
2022-10-07T03:19:11.365Z,119.60
2022-10-07T03:21:48.627Z,121.57
2022-10-07T03:24:16.893Z,121.47
2022-10-07T03:26:46.558Z,121.00
2022-10-07T03:29:15.818Z,120.60
2022-10-07T03:31:44.216Z,119.40
2022-10-07T03:34:11.669Z,120.80
2022-10-07T03:36:42.309Z,121.07
2022-10-07T03:39:11.073Z,120.47
2022-10-07T03:41:38.521Z,120.70
2022-10-07T03:44:06.521Z,118.63
2022-10-07T03:46:34.725Z,119.60
2022-10-07T03:49:03.221Z,120.67
2022-10-07T03:51:31.695Z,121.20
2022-10-07T03:54:01.775Z,121.10
2022-10-07T03:56:32.597Z,120.57
2022-10-07T03:59:01.206Z,121.40
2022-10-07T04:01:31.305Z,119.63
2022-10-07T04:04:02.712Z,121.47
2022-10-07T04:06:35.034Z,121.30
2022-10-07T04:09:06.602Z,121.30
2022-10-07T04:11:35.245Z,120.83
2022-10-07T04:14:02.718Z,121.07
2022-10-07T04:16:34.697Z,121.07
2022-10-07T04:19:05.880Z,121.00
2022-10-07T04:21:33.993Z,121.20
2022-10-07T04:24:01.590Z,121.27
2022-10-07T04:26:29.118Z,121.40
2022-10-07T04:28:56.979Z,118.47
2022-10-07T04:31:24.576Z,121.07
2022-10-07T04:34:00.266Z,120.17
2022-10-07T04:36:35.297Z,120.97
2022-10-07T04:39:09.087Z,121.67
2022-10-07T04:41:41.227Z,121.40
2022-10-07T04:44:14.255Z,121.27
2022-10-07T04:46:50.351Z,117.57
2022-10-07T04:49:18.910Z,119.53
2022-10-07T04:51:47.156Z,117.93
2022-10-07T04:54:15.652Z,121.10
2022-10-07T04:56:50.190Z,120.10
2022-10-07T04:59:23.479Z,120.80
2022-10-07T05:01:51.809Z,120.60
2022-10-07T05:04:19.711Z,121.10
2022-10-07T05:06:47.696Z,119.77
2022-10-07T05:09:15.687Z,120.90
2022-10-07T05:11:46.118Z,120.53
2022-10-07T05:14:21.695Z,121.27
2022-10-07T05:16:51.710Z,120.43
2022-10-07T05:19:22.194Z,121.27
2022-10-07T05:21:50.050Z,120.50
2022-10-07T05:24:17.731Z,120.30
2022-10-07T05:26:45.404Z,120.03
2022-10-07T05:29:13.091Z,119.93
2022-10-07T05:31:45.174Z,120.40
2022-10-07T05:34:16.335Z,120.37
2022-10-07T05:36:44.064Z,119.80
2022-10-07T05:39:12.582Z,118.87
2022-10-07T05:41:49.919Z,119.80
2022-10-07T05:44:20.856Z,119.77
2022-10-07T05:46:51.139Z,118.97
2022-10-07T05:49:19.332Z,119.23
2022-10-07T05:51:46.279Z,119.60
2022-10-07T05:54:13.700Z,119.50
2022-10-07T05:56:44.836Z,119.70
2022-10-07T05:59:13.684Z,119.00
2022-10-07T06:01:42.905Z,119.20
2022-10-07T06:04:15.352Z,120.07
2022-10-07T06:06:46.037Z,120.17
2022-10-07T06:09:33.375Z,119.40
2022-10-07T06:12:23.919Z,119.33
2022-10-07T06:14:53.329Z,117.83
2022-10-07T06:17:20.877Z,118.30
2022-10-07T06:19:50.253Z,119.37
2022-10-07T06:22:19.764Z,117.50
2022-10-07T06:24:48.348Z,119.00
2022-10-07T06:27:16.415Z,118.87
2022-10-07T06:29:44.844Z,119.20
2022-10-07T06:32:12.721Z,118.67
2022-10-07T06:34:41.595Z,118.87
2022-10-07T06:37:09.828Z,118.90
2022-10-07T06:39:37.631Z,117.33
2022-10-07T06:42:05.192Z,118.30
2022-10-07T06:44:37.923Z,119.27
2022-10-07T06:47:10.639Z,119.47
2022-10-07T06:49:40.004Z,119.90
2022-10-07T06:52:07.797Z,119.43
2022-10-07T06:54:36.352Z,119.40
2022-10-07T06:57:20.429Z,119.07
2022-10-07T06:59:51.696Z,119.77
2022-10-07T07:02:19.646Z,119.27
2022-10-07T07:04:48.079Z,119.00
2022-10-07T07:07:15.773Z,119.30
2022-10-07T07:09:43.392Z,119.33
2022-10-07T07:12:11.732Z,119.70
2022-10-07T07:14:44.907Z,119.47
2022-10-07T07:17:17.029Z,120.07
2022-10-07T07:19:44.997Z,119.90
2022-10-07T07:22:12.378Z,120.07
2022-10-07T07:24:41.893Z,119.60
2022-10-07T07:27:09.925Z,120.40
2022-10-07T07:29:37.901Z,120.00
2022-10-07T07:32:04.841Z,119.90
2022-10-07T07:34:37.938Z,119.50
2022-10-07T07:37:06.983Z,119.27
2022-10-07T07:39:39.316Z,120.17
2022-10-07T07:42:12.953Z,119.93
2022-10-07T07:44:40.953Z,119.60
2022-10-07T07:47:16.959Z,119.60
2022-10-07T07:49:45.684Z,119.83
2022-10-07T07:52:18.457Z,119.17
2022-10-07T07:54:49.649Z,118.50
2022-10-07T07:57:16.662Z,120.13
2022-10-07T07:59:44.223Z,120.10
2022-10-07T08:03:41.754Z,120.17
2022-10-07T08:06:11.957Z,119.80
2022-10-07T08:08:43.010Z,119.43
2022-10-07T08:11:20.138Z,120.00
2022-10-07T08:13:49.414Z,119.80
2022-10-07T08:16:22.174Z,119.30
2022-10-07T08:18:52.939Z,119.50
2022-10-07T08:21:23.482Z,119.47
2022-10-07T08:23:57.418Z,119.33
2022-10-07T08:26:33.490Z,119.37
2022-10-07T08:29:02.626Z,119.67
2022-10-07T08:31:31.824Z,119.10
2022-10-07T08:34:02.287Z,119.83
2022-10-07T08:36:32.748Z,119.97
2022-10-07T08:39:01.599Z,119.47
2022-10-07T08:41:34.721Z,119.73
2022-10-07T08:44:16.722Z,120.17
2022-10-07T08:46:53.646Z,119.83
2022-10-07T08:49:30.356Z,120.00
2022-10-07T08:52:33.562Z,120.50
2022-10-07T08:55:02.167Z,120.00
2022-10-07T08:58:07.491Z,120.30
2022-10-07T09:01:39.905Z,120.10
2022-10-07T09:05:00.374Z,120.00
2022-10-07T09:07:42.879Z,119.43
2022-10-07T09:10:10.521Z,119.33
2022-10-07T09:12:49.048Z,119.83
2022-10-07T09:15:54.977Z,119.93
2022-10-07T09:18:39.029Z,120.07
2022-10-07T09:21:18.823Z,119.90
2022-10-07T09:23:50.308Z,119.77
2022-10-07T09:26:17.297Z,119.80
2022-10-07T09:28:44.768Z,119.80
2022-10-07T09:31:16.165Z,119.70
2022-10-07T09:33:50.422Z,119.97
2022-10-07T09:36:18.122Z,120.17
2022-10-07T09:38:52.303Z,120.03
2022-10-07T09:41:36.172Z,119.67
2022-10-07T09:44:16.087Z,119.73
2022-10-07T09:46:54.892Z,119.37
2022-10-07T09:49:27.989Z,120.17
2022-10-07T09:52:23.511Z,120.10
2022-10-07T09:54:54.847Z,120.13
2022-10-07T09:57:35.179Z,120.00
2022-10-07T10:00:26.124Z,120.07
2022-10-07T10:03:12.912Z,119.77
2022-10-07T10:05:51.936Z,120.23
2022-10-07T10:08:24.536Z,119.70
2022-10-07T10:11:01.877Z,119.43
2022-10-07T10:13:37.640Z,119.50
2022-10-07T10:16:25.054Z,119.90
2022-10-07T10:19:05.378Z,119.77
2022-10-07T10:21:35.853Z,119.20
2022-10-07T10:24:16.765Z,119.17
2022-10-07T10:27:22.692Z,119.33
2022-10-07T10:30:09.207Z,119.30
2022-10-07T10:33:01.022Z,119.60
2022-10-07T10:36:13.452Z,119.30
2022-10-07T10:39:02.358Z,119.10
2022-10-07T10:41:46.489Z,119.27
2022-10-07T10:44:46.949Z,119.90
2022-10-07T10:47:43.140Z,119.07
2022-10-07T10:50:29.490Z,119.70
2022-10-07T10:53:14.781Z,119.87
2022-10-07T10:56:17.858Z,119.07
2022-10-07T10:59:18.793Z,119.17
2022-10-07T11:01:59.544Z,119.27
2022-10-07T11:04:57.961Z,120.33
2022-10-07T11:07:51.369Z,119.40
2022-10-07T11:10:33.190Z,119.00
2022-10-07T11:13:33.601Z,119.13
2022-10-07T11:16:28.066Z,119.37
2022-10-07T11:19:16.427Z,118.50
2022-10-07T11:21:50.018Z,118.50
2022-10-07T11:24:41.237Z,118.27
2022-10-07T11:27:27.074Z,118.47
2022-10-07T11:30:21.938Z,118.07
2022-10-07T11:33:10.034Z,118.27
2022-10-07T11:35:43.851Z,118.00
2022-10-07T11:38:10.719Z,117.87
2022-10-07T11:40:53.822Z,117.90
2022-10-07T11:43:49.522Z,117.80
2022-10-07T11:46:40.879Z,117.40
2022-10-07T11:49:29.238Z,117.20
2022-10-07T11:52:09.288Z,117.23
2022-10-07T11:55:08.187Z,117.17
2022-10-07T11:57:43.175Z,116.57
2022-10-07T12:00:33.243Z,116.10
2022-10-07T12:03:20.913Z,116.67
2022-10-07T12:05:51.283Z,116.47
2022-10-07T12:08:31.136Z,115.40
2022-10-07T12:11:14.379Z,116.47
2022-10-07T12:13:43.925Z,116.23
2022-10-07T12:16:34.622Z,116.17
2022-10-07T12:19:07.661Z,112.90
2022-10-07T12:22:02.889Z,115.63
2022-10-07T12:24:38.279Z,113.47
2022-10-07T12:27:46.369Z,113.43
2022-10-07T12:30:49.870Z,112.47
2022-10-07T12:33:45.660Z,114.50
2022-10-07T12:36:21.928Z,114.30
2022-10-07T12:39:01.225Z,114.87
2022-10-07T12:41:29.414Z,113.97
2022-10-07T12:44:08.253Z,113.13
2022-10-07T12:46:42.649Z,113.70
2022-10-07T12:49:37.724Z,112.07
2022-10-07T12:52:12.045Z,112.23
2022-10-07T12:54:54.204Z,112.03
2022-10-07T12:57:26.877Z,111.70
2022-10-07T13:00:12.424Z,111.40
2022-10-07T13:03:06.205Z,111.67
2022-10-07T13:06:19.088Z,111.07
2022-10-07T13:09:20.509Z,111.67
2022-10-07T13:12:12.924Z,112.17
2022-10-07T13:15:22.533Z,112.10
2022-10-07T13:18:44.909Z,112.40
2022-10-07T13:21:39.605Z,112.07
2022-10-07T13:24:14.629Z,112.47
2022-10-07T13:26:45.886Z,112.37
2022-10-07T13:29:26.641Z,112.57
2022-10-07T13:32:31.861Z,112.50
2022-10-07T13:35:26.811Z,112.47
2022-10-07T13:37:53.969Z,112.97
2022-10-07T13:40:35.179Z,112.30
2022-10-07T13:43:08.687Z,112.47
2022-10-07T13:45:45.406Z,112.07
2022-10-07T13:48:31.158Z,111.30
2022-10-07T13:51:01.234Z,111.97
2022-10-07T13:53:34.139Z,112.37
2022-10-07T13:56:06.737Z,112.97
2022-10-07T13:58:35.273Z,113.00
2022-10-07T14:01:05.950Z,114.23
2022-10-07T14:03:33.234Z,114.43
2022-10-07T14:06:01.335Z,114.43
2022-10-07T14:08:29.603Z,115.17
2022-10-07T14:11:18.786Z,113.47
2022-10-07T14:13:46.695Z,114.27
2022-10-07T14:16:23.307Z,112.90
2022-10-07T14:18:52.589Z,113.03
2022-10-07T14:21:20.039Z,113.27
2022-10-07T14:23:47.803Z,114.70
2022-10-07T14:26:16.163Z,114.77
2022-10-07T14:28:44.366Z,114.23
2022-10-07T14:31:39.482Z,113.50
2022-10-07T14:34:38.980Z,114.77
2022-10-07T14:37:11.162Z,112.77
2022-10-07T14:39:48.121Z,114.37
2022-10-07T14:42:35.884Z,114.17
2022-10-07T14:45:09.468Z,115.17
2022-10-07T14:47:41.262Z,114.40
2022-10-07T14:50:08.933Z,114.73
2022-10-07T14:52:46.854Z,114.37
2022-10-07T14:55:24.950Z,115.27
2022-10-07T14:57:52.773Z,116.30
2022-10-07T15:00:27.534Z,116.30
2022-10-07T15:02:56.769Z,113.90
2022-10-07T15:05:26.212Z,116.40
2022-10-07T15:07:53.743Z,116.87
2022-10-07T15:10:26.498Z,116.70
2022-10-07T15:12:55.908Z,116.57
2022-10-07T15:15:23.388Z,116.57
2022-10-07T15:17:50.460Z,116.00
2022-10-07T15:20:18.052Z,115.97
2022-10-07T15:22:45.907Z,116.30
2022-10-07T15:25:17.931Z,114.83
2022-10-07T15:27:44.899Z,116.37
2022-10-07T15:30:13.133Z,117.03
2022-10-07T15:32:40.552Z,116.37
2022-10-07T15:35:08.504Z,117.67
2022-10-07T15:37:36.278Z,117.53
2022-10-07T15:40:06.672Z,117.53
2022-10-07T15:42:34.473Z,118.27
2022-10-07T15:45:01.415Z,118.23
2022-10-07T15:47:28.920Z,118.20
2022-10-07T15:49:56.403Z,117.90
2022-10-07T15:52:23.696Z,117.87
2022-10-07T15:54:51.744Z,118.50
2022-10-07T15:57:19.353Z,119.03
2022-10-07T15:59:46.821Z,118.93
2022-10-07T16:02:18.726Z,118.67
2022-10-07T16:04:47.119Z,118.87
2022-10-07T16:07:15.385Z,118.80
2022-10-07T16:09:43.504Z,119.87
2022-10-07T16:12:10.897Z,119.03
2022-10-07T16:14:38.790Z,119.60
2022-10-07T16:17:06.204Z,119.80
2022-10-07T16:19:33.776Z,119.77
2022-10-07T16:22:01.233Z,119.97
2022-10-07T16:24:34.033Z,120.70
2022-10-07T16:27:02.796Z,120.70
2022-10-07T16:29:48.517Z,119.97
2022-10-07T16:32:15.570Z,120.77
2022-10-07T16:34:44.329Z,120.00
2022-10-07T16:37:12.540Z,120.00
2022-10-07T16:39:40.003Z,120.30
2022-10-07T16:42:07.821Z,120.30
2022-10-07T16:44:35.767Z,120.70
2022-10-07T16:47:03.313Z,120.00
2022-10-07T16:49:30.475Z,120.87
2022-10-07T16:51:58.362Z,120.70
2022-10-07T16:54:29.633Z,119.10
2022-10-07T16:56:57.549Z,120.53
2022-10-07T16:59:25.557Z,121.10
2022-10-07T17:01:56.244Z,121.00
2022-10-07T17:04:25.291Z,121.40
2022-10-07T17:06:53.485Z,120.77
2022-10-07T17:09:24.289Z,121.57
2022-10-07T17:11:52.249Z,121.50
2022-10-07T17:14:21.488Z,121.47
2022-10-07T17:16:57.053Z,121.70
2022-10-07T17:19:28.221Z,122.27
2022-10-07T17:21:59.502Z,121.70
2022-10-07T17:24:27.103Z,122.13
2022-10-07T17:26:55.059Z,122.27
2022-10-07T17:29:25.984Z,121.20
2022-10-07T17:31:54.142Z,121.90
2022-10-07T17:34:22.654Z,121.47
2022-10-07T17:36:50.589Z,122.20
2022-10-07T17:39:19.264Z,121.47
2022-10-07T17:41:47.689Z,121.37
2022-10-07T17:44:15.499Z,121.83
2022-10-07T17:46:43.358Z,121.50
2022-10-07T17:49:15.438Z,121.57
2022-10-07T17:51:43.832Z,121.70
2022-10-07T17:54:14.036Z,121.50
2022-10-07T17:56:47.415Z,121.93
2022-10-07T17:59:15.042Z,122.10
2022-10-07T18:01:42.547Z,122.20
2022-10-07T18:04:23.710Z,121.63
2022-10-07T18:06:52.338Z,121.90
2022-10-07T18:09:22.091Z,122.30
2022-10-07T18:12:08.525Z,120.37
2022-10-07T18:14:54.603Z,121.73
2022-10-07T18:17:22.746Z,122.10
2022-10-07T18:19:50.348Z,121.50
2022-10-07T18:22:17.844Z,122.20
2022-10-07T18:24:46.093Z,122.13
2022-10-07T18:27:14.052Z,122.40
2022-10-07T18:29:41.565Z,121.90
2022-10-07T18:32:09.085Z,121.90
2022-10-07T18:34:36.679Z,121.90
2022-10-07T18:37:28.935Z,121.37
2022-10-07T18:39:56.468Z,120.37
2022-10-07T18:42:23.436Z,122.17
2022-10-07T18:44:54.968Z,122.30
2022-10-07T18:47:22.527Z,122.13
2022-10-07T18:49:51.654Z,122.10
2022-10-07T18:52:20.128Z,121.77
2022-10-07T18:54:47.168Z,121.67
2022-10-07T18:57:18.037Z,122.33
2022-10-07T18:59:45.128Z,121.87
2022-10-07T19:02:12.183Z,122.37
2022-10-07T19:04:43.684Z,122.20
2022-10-07T19:07:36.714Z,122.47
2022-10-07T19:10:05.660Z,122.47
2022-10-07T19:12:51.479Z,121.67
2022-10-07T19:15:21.052Z,121.67
2022-10-07T19:17:50.452Z,122.07
2022-10-07T19:20:17.921Z,121.47
2022-10-07T19:22:45.500Z,121.47
2022-10-07T19:25:31.201Z,121.60
2022-10-07T19:28:03.523Z,121.67
2022-10-07T19:30:30.961Z,121.67
2022-10-07T19:32:58.481Z,121.67
2022-10-07T19:35:26.041Z,121.97
2022-10-07T19:37:53.544Z,121.40
2022-10-07T19:40:21.019Z,121.73
2022-10-07T19:42:48.405Z,121.77
2022-10-07T19:45:15.884Z,121.30
2022-10-07T19:47:43.600Z,121.87
2022-10-07T19:50:11.997Z,121.77
2022-10-07T19:52:39.453Z,121.70
2022-10-07T19:55:07.653Z,121.87
2022-10-07T19:57:35.433Z,121.60
2022-10-07T20:00:05.146Z,121.83
2022-10-07T20:02:39.344Z,121.13
2022-10-07T20:05:08.154Z,121.10
2022-10-07T20:07:36.174Z,121.40
2022-10-07T20:10:03.965Z,121.77
2022-10-07T20:12:31.658Z,121.37
2022-10-07T20:14:59.077Z,121.17
2022-10-07T20:17:26.641Z,121.73
2022-10-07T20:19:56.571Z,120.83
2022-10-07T20:22:23.580Z,121.50
2022-10-07T20:24:50.959Z,121.10
2022-10-07T20:27:18.561Z,121.53
2022-10-07T20:29:57.916Z,120.57
2022-10-07T20:32:34.197Z,121.50
2022-10-07T20:35:06.679Z,121.07
2022-10-07T20:37:34.211Z,121.20
2022-10-07T20:40:20.113Z,121.07
2022-10-07T20:42:47.746Z,121.30
2022-10-07T20:45:15.539Z,121.10
2022-10-07T20:47:44.298Z,120.23
2022-10-07T20:50:11.720Z,119.80
2022-10-07T20:52:39.154Z,121.03
2022-10-07T20:55:09.282Z,120.70
2022-10-07T20:57:38.135Z,121.10
2022-10-07T21:00:16.699Z,120.70
2022-10-07T21:02:44.597Z,120.60
2022-10-07T21:05:12.442Z,121.10
2022-10-07T21:07:40.182Z,120.70
2022-10-07T21:10:07.712Z,121.20
2022-10-07T21:12:35.183Z,121.00
2022-10-07T21:15:03.983Z,121.00
2022-10-07T21:17:31.491Z,121.17
2022-10-07T21:19:58.994Z,120.40
2022-10-07T21:22:27.175Z,120.97
2022-10-07T21:24:54.607Z,120.47
2022-10-07T21:27:23.019Z,120.40
2022-10-07T21:29:50.118Z,121.37
2022-10-07T21:32:18.573Z,120.97
2022-10-07T21:34:46.000Z,120.17
2022-10-07T21:37:13.435Z,120.67
2022-10-07T21:39:40.901Z,118.90
2022-10-07T21:42:08.488Z,121.07
2022-10-07T21:44:35.928Z,120.40
2022-10-07T21:47:04.855Z,120.57
2022-10-07T21:49:32.326Z,120.17
2022-10-07T21:51:59.727Z,119.70
2022-10-07T21:54:27.461Z,120.50
2022-10-07T21:56:54.977Z,120.53
2022-10-07T21:59:22.535Z,120.40
2022-10-07T22:01:50.085Z,119.97
2022-10-07T22:04:18.967Z,120.30
2022-10-07T22:07:05.513Z,120.40
2022-10-07T22:09:33.306Z,120.37
2022-10-07T22:12:00.813Z,120.60
2022-10-07T22:14:28.339Z,120.93
2022-10-07T22:16:56.000Z,120.37
2022-10-07T22:19:23.640Z,118.77
2022-10-07T22:21:51.492Z,120.40
2022-10-07T22:24:18.943Z,120.57
2022-10-07T22:26:48.080Z,120.00
2022-10-07T22:29:18.376Z,120.70
2022-10-07T22:31:46.966Z,120.30
2022-10-07T22:34:32.870Z,120.37
2022-10-07T22:37:00.664Z,120.30
2022-10-07T22:39:30.308Z,119.10
2022-10-07T22:41:59.100Z,120.00
2022-10-07T22:44:27.894Z,120.40
2022-10-07T22:46:59.476Z,120.60
2022-10-07T22:49:29.970Z,120.03
2022-10-07T22:51:59.430Z,118.30
2022-10-07T22:54:27.562Z,118.87
2022-10-07T22:56:55.103Z,120.37
2022-10-07T22:59:23.385Z,119.67
2022-10-07T23:01:50.425Z,119.97
2022-10-07T23:04:20.094Z,120.57
2022-10-07T23:06:47.633Z,120.00
2022-10-07T23:09:15.043Z,119.90
2022-10-07T23:11:42.229Z,120.00
2022-10-07T23:14:09.699Z,119.90
2022-10-07T23:16:36.749Z,119.50
2022-10-07T23:19:04.186Z,120.30
2022-10-07T23:21:34.653Z,120.50
2022-10-07T23:24:07.188Z,120.50
2022-10-07T23:26:36.579Z,119.70
2022-10-07T23:29:04.477Z,119.33
2022-10-07T23:31:32.829Z,119.87
2022-10-07T23:34:04.855Z,120.20
2022-10-07T23:36:34.619Z,120.13
2022-10-07T23:39:02.312Z,119.90
2022-10-07T23:41:30.864Z,119.80
2022-10-07T23:44:01.952Z,120.37
2022-10-07T23:46:33.300Z,119.57
2022-10-07T23:49:01.013Z,119.70
2022-10-07T23:51:29.371Z,120.00
2022-10-07T23:53:59.101Z,118.67
2022-10-07T23:56:26.774Z,120.10
2022-10-07T23:58:54.134Z,119.70
